Time;durP1;ratioP1;P1;durP2;ratioP2;P2;SDS_P1;SDS_P2;PMS_P1;PMS_P2;Temp;Humidity;BMP_temperature;BMP_pressure;BME280_temperature;BME280_humidity;BME280_pressure;Samples;Min_cycle;Max_cycle;Signal;HPM_P1;HPM_P2
2021/10/28 00:12:20;;;;;;;3.50;3.20;;;;;;;10.46;100.00;100999.88;5071054;28;20177;-75
2021/10/28 00:14:24;;;;;;;6.07;3.37;;;;;;;10.43;100.00;101046.94;5065670;28;20534;-76
2021/10/28 00:16:51;;;;;;;4.00;3.00;;;;;;;10.40;100.00;101042.03;5077888;28;20495;-76
2021/10/28 00:19:17;;;;;;;3.23;2.93;;;;;;;10.36;100.00;101041.81;5077951;28;20266;-76
2021/10/28 00:21:44;;;;;;;4.17;3.77;;;;;;;10.35;100.00;101040.19;5070768;28;20189;-76
2021/10/28 00:24:11;;;;;;;2.43;2.30;;;;;;;10.35;100.00;101044.84;5069529;28;20186;-77
2021/10/28 00:26:42;;;;;;;2.93;2.60;;;;;;;10.34;100.00;101045.94;5070530;28;20194;-76
2021/10/28 00:29:14;;;;;;;4.00;3.60;;;;;;;10.29;100.00;101046.03;5070633;28;20677;-76
2021/10/28 00:31:41;;;;;;;2.70;2.47;;;;;;;10.26;100.00;101043.88;5070536;28;20220;-76
2021/10/28 00:34:09;;;;;;;9.33;4.00;;;;;;;10.26;100.00;101046.59;5070381;28;20196;-76
2021/10/28 00:36:36;;;;;;;4.57;4.17;;;;;;;10.25;100.00;101045.78;5070436;28;20645;-76
2021/10/28 00:39:03;;;;;;;3.93;3.63;;;;;;;10.28;100.00;101047.97;5070284;28;20182;-76
2021/10/28 00:41:29;;;;;;;4.17;3.37;;;;;;;10.32;100.00;101046.25;5070481;28;20213;-76
2021/10/28 00:43:57;;;;;;;3.90;3.60;;;;;;;10.37;100.00;101039.91;5070269;28;20206;-76
2021/10/28 00:46:25;;;;;;;4.50;4.10;;;;;;;10.31;100.00;101044.63;5070180;28;20228;-76
2021/10/28 00:48:51;;;;;;;4.87;3.33;;;;;;;10.43;100.00;101047.75;5071038;28;20182;-76
2021/10/28 00:51:22;;;;;;;4.20;3.90;;;;;;;10.36;100.00;101010.97;5074265;28;20178;-76
2021/10/28 00:53:49;;;;;;;3.57;3.27;;;;;;;10.37;100.00;101054.38;5074051;28;20665;-76
2021/10/28 00:56:15;;;;;;;4.20;3.73;;;;;;;10.43;100.00;101053.19;5074077;28;20292;-76
2021/10/28 00:58:40;;;;;;;4.97;4.53;;;;;;;10.40;100.00;101044.75;5073996;28;20190;-75
2021/10/28 01:01:07;;;;;;;2.97;2.77;;;;;;;10.46;100.00;101040.88;5073903;28;20178;-75
2021/10/28 01:03:34;;;;;;;4.07;3.67;;;;;;;10.43;100.00;101049.66;5073868;28;20171;-76
2021/10/28 01:06:00;;;;;;;4.17;3.77;;;;;;;10.19;100.00;101036.03;5073730;28;20171;-76
2021/10/28 01:08:26;;;;;;;5.23;4.73;;;;;;;10.29;100.00;101043.31;5073654;28;20205;-76
2021/10/28 01:10:52;;;;;;;4.33;4.03;;;;;;;10.26;100.00;101041.13;5073753;28;20182;-76
2021/10/28 01:13:20;;;;;;;2.63;2.43;;;;;;;10.39;100.00;101041.22;5073727;28;20190;-77
2021/10/28 01:15:50;;;;;;;4.23;3.63;;;;;;;10.34;100.00;101043.22;5072112;28;20305;-76
2021/10/28 01:18:16;;;;;;;3.30;3.00;;;;;;;10.45;100.00;101036.50;5073719;28;20181;-76
2021/10/28 01:20:45;;;;;;;4.30;3.67;;;;;;;10.45;100.00;101049.34;5073566;28;20175;-76
2021/10/28 01:23:12;;;;;;;3.30;3.00;;;;;;;10.57;100.00;101047.00;5073525;28;20645;-76
2021/10/28 01:25:40;;;;;;;4.40;4.00;;;;;;;10.68;100.00;101038.31;5073412;28;20205;-76
2021/10/28 01:28:12;;;;;;;4.77;3.47;;;;;;;10.67;100.00;101041.34;5073303;28;20202;-76
2021/10/28 01:30:38;;;;;;;4.27;3.87;;;;;;;10.67;100.00;101039.44;5072221;28;20185;-75
2021/10/28 01:33:04;;;;;;;3.60;3.30;;;;;;;10.55;100.00;101041.00;5072051;28;20182;-76
2021/10/28 01:35:29;;;;;;;4.43;3.37;;;;;;;10.27;100.00;101046.34;5073272;28;20227;-76
2021/10/28 01:37:55;;;;;;;4.37;3.97;;;;;;;9.82;100.00;101015.75;5072041;28;20549;-76
2021/10/28 01:40:20;;;;;;;5.63;4.33;;;;;;;9.43;100.00;101018.69;5072922;28;20171;-76
2021/10/28 01:42:51;;;;;;;5.97;5.37;;;;;;;9.23;100.00;101025.16;5073288;28;20875;-76
2021/10/28 01:45:18;;;;;;;4.87;4.47;;;;;;;9.04;100.00;101013.34;5073035;28;20189;-75
2021/10/28 01:47:43;;;;;;;5.53;5.00;;;;;;;8.94;100.00;101025.16;5072932;28;20297;-76
2021/10/28 01:50:10;;;;;;;5.10;4.60;;;;;;;9.00;100.00;101017.75;5073021;28;20320;-76
2021/10/28 01:52:38;;;;;;;5.17;4.30;;;;;;;9.33;100.00;101017.97;5072890;28;20171;-75
2021/10/28 01:55:11;;;;;;;4.37;3.97;;;;;;;9.56;100.00;101028.09;5072911;28;20177;-76
2021/10/28 01:57:38;;;;;;;4.57;3.97;;;;;;;9.68;100.00;101020.28;5073002;28;20602;-76
2021/10/28 02:00:11;;;;;;;4.37;3.50;;;;;;;9.81;100.00;101022.31;5072796;28;20181;-76
2021/10/28 02:02:36;;;;;;;4.77;4.37;;;;;;;9.81;100.00;101018.78;5073241;28;20269;-75
2021/10/28 02:05:02;;;;;;;6.40;3.60;;;;;;;9.87;100.00;101014.88;5072490;28;20324;-75
2021/10/28 02:07:27;;;;;;;4.57;3.57;;;;;;;9.81;100.00;100980.56;5072498;28;20674;-76
2021/10/28 02:09:52;;;;;;;4.30;4.00;;;;;;;9.85;100.00;100984.34;5072678;28;20181;-76
2021/10/28 02:12:18;;;;;;;5.27;4.83;;;;;;;9.71;100.00;101002.53;5072601;28;20183;-76
2021/10/28 02:14:43;;;;;;;4.67;3.83;;;;;;;9.69;100.00;101004.72;5072489;28;20181;-76
2021/10/28 02:17:09;;;;;;;4.90;4.50;;;;;;;9.62;100.00;100955.19;5072555;28;20174;-76
2021/10/28 02:19:34;;;;;;;4.87;4.37;;;;;;;9.74;100.00;100977.41;5072370;28;20170;-76
2021/10/28 02:21:59;;;;;;;4.77;4.37;;;;;;;9.79;100.00;101026.44;5072453;28;20261;-76
2021/10/28 02:24:28;;;;;;;4.43;4.13;;;;;;;9.88;100.00;101005.59;5072198;28;20258;-76
2021/10/28 02:26:54;;;;;;;5.10;4.60;;;;;;;9.97;100.00;100967.53;5072477;28;20197;-76
2021/10/28 02:29:19;;;;;;;4.37;3.97;;;;;;;9.89;100.00;101020.06;5072323;28;20178;-76
2021/10/28 02:31:46;;;;;;;3.77;3.47;;;;;;;9.94;100.00;101017.25;5072318;28;20199;-75
2021/10/28 02:34:12;;;;;;;4.27;3.87;;;;;;;9.92;100.00;101014.81;5071965;28;20175;-76
2021/10/28 02:36:37;;;;;;;4.40;4.00;;;;;;;9.91;100.00;101018.66;5072062;28;20186;-76
2021/10/28 02:39:03;;;;;;;3.13;2.93;;;;;;;9.92;100.00;101014.00;5070520;28;20183;-76
2021/10/28 02:41:28;;;;;;;5.33;4.83;;;;;;;9.90;100.00;101000.66;5072239;28;20575;-76
2021/10/28 02:43:54;;;;;;;5.67;4.13;;;;;;;9.91;100.00;100966.78;5072058;28;20177;-76
2021/10/28 02:46:19;;;;;;;6.33;4.07;;;;;;;9.86;100.00;101005.09;5072160;28;20540;-75
2021/10/28 02:48:44;;;;;;;4.63;4.13;;;;;;;9.83;100.00;101011.91;5072390;28;20220;-76
2021/10/28 02:51:10;;;;;;;2.30;2.17;;;;;;;9.80;100.00;101001.59;5071988;28;20194;-75
2021/10/28 02:53:35;;;;;;;4.53;4.13;;;;;;;9.79;100.00;101004.59;5072391;28;20174;-76
2021/10/28 02:56:00;;;;;;;4.53;4.07;;;;;;;9.77;100.00;101015.81;5071815;28;20685;-75
2021/10/28 02:58:26;;;;;;;3.80;3.07;;;;;;;9.83;100.00;101002.91;5071718;28;20544;-76
2021/10/28 03:00:51;;;;;;;4.40;4.00;;;;;;;9.83;100.00;101003.72;5071597;28;20178;-76
2021/10/28 03:03:17;;;;;;;3.80;3.50;;;;;;;9.84;100.00;101001.84;5071661;28;20175;-76
2021/10/28 03:05:42;;;;;;;4.33;4.03;;;;;;;9.84;100.00;100967.16;5071316;28;20536;-76
2021/10/28 03:08:08;;;;;;;4.77;4.23;;;;;;;9.87;100.00;101001.25;5071499;28;20202;-76
2021/10/28 03:10:33;;;;;;;9.00;5.93;;;;;;;9.90;100.00;100997.13;5071561;28;20174;-76
2021/10/28 03:12:59;;;;;;;2.50;2.17;;;;;;;9.92;100.00;100994.91;5070828;28;20600;-74
2021/10/28 03:15:28;;;;;;;5.33;4.83;;;;;;;9.91;100.00;100998.72;5071289;28;20251;-75
2021/10/28 03:25:43;;;;;;;5.30;4.80;;;;;;;9.86;100.00;100993.34;5071115;28;20177;-76
2021/10/28 03:28:13;;;;;;;5.10;4.63;;;;;;;9.74;100.00;100988.31;5071164;28;20205;-77
2021/10/28 03:30:39;;;;;;;5.63;4.70;;;;;;;9.78;100.00;100994.81;5071172;28;20631;-76
2021/10/28 03:33:06;;;;;;;5.03;4.63;;;;;;;9.82;100.00;101006.75;5071051;28;20167;-76
2021/10/28 03:35:32;;;;;;;4.57;4.03;;;;;;;9.84;100.00;100997.19;5070967;28;20198;-75
2021/10/28 03:38:03;;;;;;;4.50;4.10;;;;;;;9.81;100.00;101007.84;5070744;28;20259;-76
2021/10/28 03:43:26;;;;;;;5.13;4.67;;;;;;;9.65;100.00;101004.50;5071185;28;20170;-76
2021/10/28 04:17:50;;;;;;;6.10;5.53;;;;;;;8.79;100.00;100989.03;5070694;28;20173;-77
2021/10/28 04:28:56;;;;;;;5.33;4.83;;;;;;;9.10;100.00;100986.84;5074673;28;20279;-76
2021/10/28 04:31:27;;;;;;;4.37;3.63;;;;;;;9.21;100.00;100977.47;5074796;28;20157;-75
2021/10/28 04:33:53;;;;;;;4.83;4.40;;;;;;;9.29;100.00;100946.03;5074690;28;20554;-77
2021/10/28 04:36:18;;;;;;;3.73;3.43;;;;;;;9.38;100.00;100938.81;5074364;28;20182;-77
2021/10/28 04:38:44;;;;;;;3.50;3.20;;;;;;;9.42;100.00;100937.16;5074155;28;20249;-76
2021/10/28 04:41:10;;;;;;;4.53;4.10;;;;;;;9.41;100.00;100992.81;5073467;28;20194;-76
2021/10/28 04:43:35;;;;;;;3.67;3.37;;;;;;;9.39;100.00;100989.53;5074583;28;20170;-77
2021/10/28 04:46:00;;;;;;;4.67;4.27;;;;;;;9.39;100.00;100981.34;5074340;28;20178;-76
2021/10/28 04:48:26;;;;;;;4.37;3.97;;;;;;;9.38;100.00;100980.53;5074055;28;20205;-76
2021/10/28 04:50:51;;;;;;;4.57;4.17;;;;;;;9.41;100.00;100939.06;5074244;28;20173;-75
2021/10/28 04:53:17;;;;;;;9.07;8.27;;;;;;;9.25;100.00;100956.69;5074250;28;20650;-76
2021/10/28 04:55:42;;;;;;;5.30;4.80;;;;;;;9.31;100.00;100947.38;5074142;28;20178;-75
2021/10/28 04:58:08;;;;;;;5.20;4.80;;;;;;;9.28;100.00;100988.03;5074061;28;20202;-75
2021/10/28 05:00:34;;;;;;;8.40;4.63;;;;;;;9.28;100.00;100991.59;5073968;28;20529;-76
2021/10/28 05:02:59;;;;;;;4.17;3.77;;;;;;;9.29;100.00;100970.56;5074300;28;20171;-76
2021/10/28 05:05:24;;;;;;;4.67;4.27;;;;;;;9.16;100.00;100974.81;5073676;28;20245;-76
2021/10/28 05:07:50;;;;;;;5.83;5.33;;;;;;;9.03;100.00;100916.34;5073741;28;20221;-76
2021/10/28 05:10:15;;;;;;;4.83;4.43;;;;;;;9.10;100.00;100926.88;5074127;28;20726;-76
2021/10/28 05:12:41;;;;;;;5.00;4.27;;;;;;;9.06;100.00;100934.00;5073911;28;20170;-76
2021/10/28 05:15:06;;;;;;;4.50;4.20;;;;;;;8.99;100.00;100917.22;5073705;28;20253;-75
2021/10/28 05:17:32;;;;;;;4.70;4.23;;;;;;;8.98;100.00;100972.81;5074158;28;20254;-75
2021/10/28 05:19:57;;;;;;;3.97;3.60;;;;;;;8.98;100.00;100924.56;5073967;28;20170;-76
2021/10/28 05:22:23;;;;;;;4.70;4.20;;;;;;;8.87;100.00;100936.66;5073571;28;20592;-75
2021/10/28 05:24:48;;;;;;;5.03;4.63;;;;;;;8.74;100.00;100931.88;5073412;28;20660;-77
2021/10/28 05:27:14;;;;;;;4.23;3.83;;;;;;;8.78;100.00;100939.19;5072204;28;20202;-76
2021/10/28 05:29:39;;;;;;;5.00;4.53;;;;;;;8.75;100.00;100934.31;5073432;28;20171;-76
2021/10/28 05:32:05;;;;;;;6.13;4.53;;;;;;;8.60;100.00;100931.75;5073383;28;20171;-76
2021/10/28 05:34:31;;;;;;;4.53;4.17;;;;;;;8.74;100.00;100954.50;5072486;28;20414;-76
2021/10/28 05:36:56;;;;;;;4.43;4.00;;;;;;;8.79;100.00;100935.38;5073359;28;20182;-77
2021/10/28 05:39:21;;;;;;;4.20;3.80;;;;;;;8.92;100.00;100920.25;5073078;28;20650;-76
2021/10/28 05:41:47;;;;;;;4.63;4.23;;;;;;;8.89;100.00;100921.66;5073137;28;20245;-75
2021/10/28 05:44:13;;;;;;;3.93;3.63;;;;;;;8.89;100.00;100957.06;5072917;28;20181;-77
2021/10/28 05:46:38;;;;;;;3.87;3.57;;;;;;;8.92;100.00;100922.97;5073246;28;20244;-76
2021/10/28 05:49:04;;;;;;;5.23;4.73;;;;;;;8.86;100.00;100916.78;5071847;28;20213;-77
2021/10/28 05:51:29;;;;;;;4.43;4.03;;;;;;;8.89;100.00;100931.75;5073136;28;20760;-77
2021/10/28 05:53:55;;;;;;;1.80;1.70;;;;;;;8.91;100.00;100954.88;5071748;28;20187;-76
2021/10/28 05:56:20;;;;;;;4.90;4.50;;;;;;;8.95;100.00;100933.31;5072782;28;20175;-76
2021/10/28 05:58:46;;;;;;;5.10;4.60;;;;;;;8.95;100.00;100933.31;5073224;28;20269;-77
2021/10/28 06:01:11;;;;;;;4.03;3.63;;;;;;;9.01;100.00;100912.28;5072954;28;20183;-76
2021/10/28 06:03:37;;;;;;;4.80;4.40;;;;;;;9.00;100.00;100935.19;5073046;28;20649;-76
2021/10/28 06:06:04;;;;;;;4.20;3.80;;;;;;;9.03;100.00;100904.63;5072602;28;20182;-76
2021/10/28 06:08:30;;;;;;;6.30;5.00;;;;;;;9.01;100.00;100942.25;5072762;28;20193;-80
2021/10/28 06:10:55;;;;;;;5.63;5.13;;;;;;;9.07;100.00;100919.28;5072590;28;20179;-74
2021/10/28 06:13:22;;;;;;;4.87;4.40;;;;;;;8.93;100.00;100939.03;5072777;28;20181;-75
2021/10/28 06:15:48;;;;;;;5.07;4.67;;;;;;;8.87;100.00;100953.03;5072371;28;20178;-76
2021/10/28 06:20:39;;;;;;;4.53;4.13;;;;;;;8.80;100.00;100917.91;5072428;28;20175;-80
2021/10/28 06:23:04;;;;;;;4.30;3.90;;;;;;;8.97;100.00;100933.00;5072330;28;20699;-79
2021/10/28 06:25:30;;;;;;;3.43;3.07;;;;;;;8.96;100.00;100921.28;5072296;28;20171;-79
2021/10/28 06:27:55;;;;;;;2.97;2.67;;;;;;;8.98;100.00;100932.75;5070716;28;20295;-78
2021/10/28 06:30:21;;;;;;;4.90;3.37;;;;;;;9.10;100.00;100927.69;5072077;28;20185;-79
2021/10/28 06:32:52;;;;;;;3.90;3.60;;;;;;;9.14;100.00;100971.56;5072087;28;20729;-79
2021/10/28 06:35:17;;;;;;;5.30;4.17;;;;;;;9.15;100.00;100926.84;5071965;28;20205;-78
2021/10/28 06:37:47;;;;;;;4.07;3.73;;;;;;;9.15;100.00;100975.91;5070806;28;20171;-79
2021/10/28 06:40:13;;;;;;;4.07;3.77;;;;;;;9.17;100.00;100932.81;5071606;28;20249;-78
2021/10/28 06:42:39;;;;;;;3.57;3.27;;;;;;;9.18;100.00;100981.59;5071702;28;20239;-77
2021/10/28 06:45:05;;;;;;;4.80;3.57;;;;;;;9.14;100.00;100977.00;5071522;28;20171;-78
2021/10/28 06:47:30;;;;;;;4.57;4.17;;;;;;;9.09;100.00;100977.03;5069324;28;20227;-79
2021/10/28 06:49:58;;;;;;;4.20;3.80;;;;;;;9.17;100.00;100984.59;5071561;28;20170;-78
2021/10/28 06:52:24;;;;;;;9.20;4.10;;;;;;;9.21;100.00;100974.75;5071550;28;20167;-78
2021/10/28 06:54:52;;;;;;;5.23;4.57;;;;;;;9.24;100.00;100979.59;5071296;28;20171;-79
2021/10/28 06:57:36;;;;;;;4.53;4.13;;;;;;;9.24;100.00;100971.44;5078357;28;20175;-79
2021/10/28 07:02:47;;;;;;;3.97;3.53;;;;;;;9.32;100.00;100989.88;5072077;28;20285;-76
2021/10/28 07:05:12;;;;;;;5.23;4.73;;;;;;;9.35;100.00;100996.69;5071381;28;20666;-76
2021/10/28 07:07:37;;;;;;;6.27;4.47;;;;;;;9.38;100.00;100996.91;5071509;28;20229;-76
2021/10/28 07:15:23;;;;;;;4.93;4.43;;;;;;;9.51;100.00;100998.94;5055238;28;20186;-76
2021/10/28 07:20:25;;;;;;;3.23;2.93;;;;;;;9.61;100.00;100989.03;5069780;28;20197;-77
2021/10/28 07:35:53;;;;;;;3.63;3.33;;;;;;;9.79;100.00;100988.25;5066333;28;20263;-77
2021/10/28 08:00:24;;;;;;;4.47;4.07;;;;;;;10.26;100.00;100984.59;5068628;28;20190;-76
2021/10/28 08:31:57;;;;;;;3.40;3.10;;;;;;;11.04;100.00;100953.00;5070387;28;20261;-77
2021/10/28 08:34:29;;;;;;;3.57;3.13;;;;;;;11.12;100.00;100957.75;5070218;28;20175;-76
2021/10/28 08:36:56;;;;;;;4.03;3.63;;;;;;;11.22;100.00;100954.00;5070404;28;20166;-82
2021/10/28 08:39:22;;;;;;;4.57;3.40;;;;;;;11.26;100.00;100944.88;5070206;28;20167;-82
2021/10/28 08:41:51;;;;;;;3.40;2.40;;;;;;;11.40;100.00;100933.94;5070289;28;20181;-80
2021/10/28 08:44:21;;;;;;;4.07;3.67;;;;;;;11.54;100.00;100932.00;5070144;28;20175;-76
2021/10/28 08:46:52;;;;;;;3.67;3.10;;;;;;;11.59;100.00;100942.88;5070239;28;20248;-76
2021/10/28 08:49:23;;;;;;;3.97;3.40;;;;;;;11.67;100.00;100932.31;5070146;28;20184;-76
2021/10/28 09:24:40;;;;;;;3.10;2.80;;;;;;;12.58;90.70;100923.91;5053787;28;20167;-75
2021/10/28 09:30:10;;;;;;;2.33;2.13;;;;;;;12.70;88.95;100921.41;5044137;28;20179;-75
2021/10/28 09:32:43;;;;;;;1.83;1.67;;;;;;;12.82;88.72;100918.88;5052942;28;20171;-76
2021/10/28 09:43:34;;;;;;;4.27;3.87;;;;;;;12.96;86.01;100913.31;5053422;28;20630;-77
2021/10/28 09:46:32;;;;;;;2.97;2.67;;;;;;;12.98;86.99;100917.34;5052834;28;20202;-76
2021/10/28 09:51:56;;;;;;;3.87;3.07;;;;;;;13.35;86.91;100924.31;5052774;28;20218;-76
2021/10/28 09:57:52;;;;;;;2.33;2.03;;;;;;;13.56;85.76;100919.03;5036449;28;20539;-75
2021/10/28 10:00:19;;;;;;;3.83;2.77;;;;;;;13.50;83.35;100917.56;5052673;28;20182;-77
2021/10/28 10:02:51;;;;;;;4.30;2.60;;;;;;;13.55;84.03;100916.59;5052596;28;20237;-76
2021/10/28 10:05:35;;;;;;;2.53;2.17;;;;;;;13.68;84.73;100919.22;5052322;28;20198;-76
2021/10/28 10:08:03;;;;;;;4.20;2.97;;;;;;;13.90;81.38;100912.81;5052239;28;20230;-76
2021/10/28 10:10:29;;;;;;;2.60;2.40;;;;;;;14.02;82.32;100906.66;5050952;28;20183;-76
2021/10/28 10:12:58;;;;;;;4.10;3.63;;;;;;;13.99;81.60;100910.03;5052386;28;20190;-76
2021/10/28 10:15:24;;;;;;;2.90;2.23;;;;;;;14.13;81.06;100896.94;5052537;28;20198;-76
2021/10/28 10:17:57;;;;;;;3.17;2.33;;;;;;;14.25;80.16;100908.09;5052239;28;20206;-76
2021/10/28 10:20:38;;;;;;;1.90;1.80;;;;;;;14.30;79.58;100899.69;5052237;28;20190;-75
2021/10/28 10:23:31;;;;;;;1.70;1.60;;;;;;;14.43;77.16;100905.31;5052262;28;20649;-76
2021/10/28 12:16:10;;;;;;;2.00;1.03;;;;;;;16.45;65.17;100755.47;5050305;28;20194;-73
2021/10/28 12:21:28;;;;;;;1.33;0.90;;;;;;;16.59;64.63;100761.44;5050236;28;20599;-73
2021/10/28 12:24:25;;;;;;;1.43;1.00;;;;;;;16.59;64.86;100747.66;5049766;28;20175;-73
2021/10/28 12:43:42;;;;;;;2.07;1.03;;;;;;;16.76;62.48;100729.28;5049890;28;20244;-77
2021/10/28 13:03:45;;;;;;;0.90;0.90;;;;;;;16.75;62.77;100711.13;5074173;28;20613;-77
2021/10/28 13:34:49;;;;;;;2.37;1.37;;;;;;;16.45;65.08;100692.03;5060985;28;20213;-74
2021/10/28 14:30:42;;;;;;;1.07;0.97;;;;;;;16.50;65.13;100644.13;5072097;28;20414;-76
2021/10/28 14:38:43;;;;;;;1.20;1.07;;;;;;;16.27;66.41;100621.72;5072222;28;20173;-76
2021/10/28 15:29:55;;;;;;;1.20;0.93;;;;;;;15.13;75.71;100518.72;5071020;28;20181;-76
2021/10/28 15:35:28;;;;;;;1.50;0.90;;;;;;;14.65;79.13;100503.66;5070814;28;20236;-76
2021/10/28 15:38:03;;;;;;;1.00;0.93;;;;;;;14.40;81.24;100497.19;5071183;28;20166;-75
2021/10/28 16:23:58;;;;;;;6.33;5.73;;;;;;;13.08;81.75;100461.72;5064542;28;20212;-72
2021/10/28 16:26:25;;;;;;;4.97;3.17;;;;;;;13.09;81.61;100460.59;5070728;28;20178;-73
2021/10/28 16:28:50;;;;;;;2.83;2.63;;;;;;;13.18;81.18;100463.34;5069867;28;20198;-75
2021/10/28 16:31:16;;;;;;;3.43;2.77;;;;;;;13.26;80.73;100461.69;5070437;28;20240;-72
2021/10/28 16:33:44;;;;;;;2.67;2.30;;;;;;;13.24;80.26;100467.50;5070204;28;20654;-72
2021/10/28 16:36:10;;;;;;;3.23;2.13;;;;;;;13.12;80.71;100445.41;5070417;28;20219;-72
2021/10/28 16:38:35;;;;;;;2.83;2.30;;;;;;;13.00;81.72;100454.31;5070226;28;20216;-73
2021/10/28 16:41:01;;;;;;;2.20;2.00;;;;;;;13.13;80.90;100454.44;5070203;28;20206;-73
2021/10/28 16:43:26;;;;;;;2.43;1.80;;;;;;;13.11;80.46;100447.34;5070263;28;20186;-73
2021/10/28 16:45:51;;;;;;;2.17;1.60;;;;;;;13.19;80.04;100445.75;5070120;28;20525;-73
2021/10/28 16:48:17;;;;;;;1.70;1.60;;;;;;;13.07;80.09;100446.41;5068636;28;20630;-73
2021/10/28 16:50:43;;;;;;;1.50;1.40;;;;;;;12.93;80.89;100445.78;5070054;28;20654;-73
2021/10/28 16:53:08;;;;;;;1.43;1.30;;;;;;;12.59;83.20;100440.41;5070081;28;20268;-73
2021/10/28 16:55:35;;;;;;;1.50;1.40;;;;;;;12.54;84.02;100440.53;5069778;28;20177;-73
2021/10/28 16:58:00;;;;;;;2.37;1.53;;;;;;;12.71;83.11;100435.03;5069892;28;20174;-73
2021/10/28 17:00:26;;;;;;;1.53;1.43;;;;;;;12.46;83.87;100440.25;5069986;28;20240;-73
2021/10/28 17:02:51;;;;;;;2.80;2.60;;;;;;;12.49;83.36;100430.56;5069952;28;20270;-73
2021/10/28 17:05:17;;;;;;;6.53;6.03;;;;;;;12.44;83.86;100441.69;5069811;28;20531;-72
2021/10/28 17:07:43;;;;;;;6.10;5.50;;;;;;;12.46;83.81;100440.25;5068479;28;20229;-73
2021/10/28 17:10:09;;;;;;;6.77;6.27;;;;;;;12.55;83.08;100448.44;5069891;28;20179;-73
2021/10/28 17:12:36;;;;;;;5.77;4.80;;;;;;;12.41;83.34;100432.16;5069838;28;20313;-73
2021/10/28 17:15:03;;;;;;;5.83;5.13;;;;;;;12.35;84.14;100421.72;5069820;28;20171;-73
2021/10/28 17:17:29;;;;;;;2.90;2.70;;;;;;;12.37;84.25;100435.91;5069681;28;20174;-73
2021/10/28 17:19:57;;;;;;;3.20;3.00;;;;;;;12.49;83.76;100441.53;5069738;28;20582;-73
2021/10/28 17:22:23;;;;;;;3.53;3.23;;;;;;;12.54;83.59;100473.44;5069894;28;20175;-73
2021/10/28 17:24:49;;;;;;;3.20;2.90;;;;;;;12.49;83.80;100468.94;5069551;28;20289;-72
2021/10/28 17:27:18;;;;;;;2.80;2.30;;;;;;;12.46;83.61;100470.38;5069190;28;20190;-73
2021/10/28 17:29:43;;;;;;;1.47;1.37;;;;;;;12.28;85.12;100460.53;5069721;28;20182;-72
2021/10/28 17:32:09;;;;;;;3.13;2.90;;;;;;;11.93;86.23;100453.44;5072202;28;20179;-72
2021/10/28 17:34:35;;;;;;;2.83;2.63;;;;;;;11.76;87.55;100448.72;5072822;28;20247;-73
2021/10/28 17:37:01;;;;;;;2.10;1.90;;;;;;;11.65;87.75;100445.47;5072949;28;20691;-72
2021/10/28 17:39:27;;;;;;;2.10;1.93;;;;;;;11.57;87.86;100443.50;5073087;28;20190;-72
2021/10/28 17:41:54;;;;;;;5.37;3.00;;;;;;;11.62;87.95;100446.91;5073289;28;20193;-73
2021/10/28 17:44:23;;;;;;;2.43;2.10;;;;;;;11.75;87.39;100444.38;5071677;28;20569;-73
2021/10/28 17:46:49;;;;;;;2.77;2.57;;;;;;;11.95;86.36;100462.94;5072825;28;20244;-72
2021/10/28 17:49:14;;;;;;;5.90;4.00;;;;;;;11.95;85.53;100459.41;5071641;28;20678;-73
2021/10/28 17:51:41;;;;;;;6.00;3.60;;;;;;;11.79;85.49;100450.84;5073450;28;20607;-73
2021/10/28 17:54:11;;;;;;;3.50;3.00;;;;;;;11.48;87.06;100457.16;5072670;28;20162;-73
2021/10/28 17:56:39;;;;;;;3.83;2.70;;;;;;;11.60;87.23;100456.56;5072737;28;20526;-72
2021/10/28 17:59:07;;;;;;;2.37;2.17;;;;;;;11.66;86.38;100458.03;5072583;28;20594;-72
2021/10/28 18:01:33;;;;;;;5.13;2.37;;;;;;;11.51;86.15;100453.00;5072912;28;20173;-72
2021/10/28 18:04:00;;;;;;;2.47;2.07;;;;;;;11.63;83.75;100464.13;5072517;28;20174;-72
2021/10/28 18:06:30;;;;;;;4.23;2.93;;;;;;;11.71;83.14;100459.78;5072453;28;20577;-72
2021/10/28 18:08:56;;;;;;;2.80;2.50;;;;;;;11.56;83.38;100453.63;5072544;28;20251;-73
2021/10/28 18:11:22;;;;;;;2.17;1.97;;;;;;;11.63;82.33;100444.97;5072503;28;20183;-73
2021/10/28 18:13:53;;;;;;;1.80;1.70;;;;;;;11.71;81.47;100454.31;5072192;28;20174;-72
2021/10/28 18:16:19;;;;;;;2.30;2.10;;;;;;;11.74;80.43;100443.56;5072295;28;20167;-72
2021/10/28 18:18:44;;;;;;;2.60;2.03;;;;;;;11.69;81.35;100440.16;5072276;28;20299;-72
2021/10/28 18:21:10;;;;;;;1.80;1.70;;;;;;;11.71;81.63;100441.44;5072420;28;20182;-72
2021/10/28 18:23:40;;;;;;;11.43;2.13;;;;;;;11.71;80.87;100441.44;5070837;28;20178;-72
2021/10/28 18:26:05;;;;;;;2.20;2.00;;;;;;;11.69;81.04;100440.94;5072436;28;20182;-72
2021/10/28 18:28:30;;;;;;;2.77;2.30;;;;;;;11.71;80.26;100440.63;5071730;28;20206;-72
2021/10/28 18:30:56;;;;;;;2.50;2.30;;;;;;;11.72;79.99;100437.59;5072063;28;20497;-72
2021/10/28 18:33:22;;;;;;;6.77;2.20;;;;;;;11.75;80.41;100430.69;5071913;28;20189;-72
2021/10/28 18:35:48;;;;;;;3.93;3.23;;;;;;;11.84;79.41;100443.28;5071747;28;20170;-72
2021/10/28 18:38:13;;;;;;;2.40;2.13;;;;;;;11.90;78.88;100442.00;5072054;28;20174;-73
2021/10/28 18:40:39;;;;;;;1.97;1.63;;;;;;;11.97;78.50;100437.97;5072000;28;20178;-72
2021/10/28 18:43:04;;;;;;;3.73;2.63;;;;;;;11.80;79.57;100431.34;5071945;28;20170;-72
2021/10/28 18:45:33;;;;;;;2.30;2.10;;;;;;;11.70;80.27;100425.34;5071690;28;20206;-73
2021/10/28 18:47:59;;;;;;;2.73;2.53;;;;;;;11.79;80.43;100424.28;5071664;28;20206;-72
2021/10/28 18:50:24;;;;;;;2.70;2.50;;;;;;;11.77;81.21;100429.22;5071770;28;20175;-73
2021/10/28 18:52:50;;;;;;;2.10;1.97;;;;;;;11.81;80.55;100430.22;5071738;28;20232;-72
2021/10/28 18:55:16;;;;;;;3.40;3.20;;;;;;;11.76;81.30;100433.09;5071388;28;20261;-73
2021/10/28 18:57:41;;;;;;;6.33;2.97;;;;;;;11.66;81.66;100421.63;5071561;28;20185;-72
2021/10/28 19:00:09;;;;;;;2.60;2.40;;;;;;;11.62;82.43;100432.41;5071716;28;20175;-73
2021/10/28 19:02:36;;;;;;;3.03;2.83;;;;;;;11.59;83.06;100419.38;5070220;28;20261;-73
2021/10/28 19:05:02;;;;;;;4.47;3.00;;;;;;;11.57;83.68;100419.69;5071347;28;20599;-72
2021/10/28 19:07:29;;;;;;;3.70;3.27;;;;;;;11.52;83.70;100413.56;5069967;28;20210;-72
2021/10/28 19:09:54;;;;;;;3.87;3.50;;;;;;;11.49;84.41;100403.25;5071420;28;20194;-72
2021/10/28 19:12:19;;;;;;;2.20;2.03;;;;;;;11.46;85.27;100401.97;5071470;28;20258;-72
2021/10/28 19:14:45;;;;;;;3.80;3.50;;;;;;;11.40;86.14;100410.63;5071205;28;20182;-72
2021/10/28 19:17:11;;;;;;;2.13;1.97;;;;;;;11.36;86.85;100402.25;5071344;28;20179;-72
2021/10/28 19:19:38;;;;;;;5.37;4.87;;;;;;;11.32;87.53;100396.63;5069846;28;20329;-72
2021/10/28 19:22:03;;;;;;;0.90;0.80;;;;;;;11.24;88.59;100396.56;5060802;28;20183;-72
2021/10/28 19:24:29;;;;;;;4.87;4.47;;;;;;;11.13;89.57;100390.59;5070991;28;20649;-72
2021/10/28 19:26:54;;;;;;;4.23;3.90;;;;;;;11.12;90.03;100388.16;5070719;28;20178;-72
2021/10/28 19:29:21;;;;;;;4.97;4.47;;;;;;;11.03;90.37;100388.16;5071745;28;20689;-72
2021/10/28 19:31:54;;;;;;;6.17;4.57;;;;;;;11.01;90.49;100384.94;5078325;28;20388;-72
2021/10/28 19:34:20;;;;;;;6.80;4.57;;;;;;;11.01;90.36;100391.19;5075008;28;20170;-72
2021/10/28 19:36:58;;;;;;;3.57;3.27;;;;;;;10.95;90.38;100384.25;5072328;28;20174;-72
2021/10/28 19:39:34;;;;;;;4.93;4.03;;;;;;;10.97;90.13;100383.94;5067190;28;20210;-72
2021/10/28 19:47:40;;;;;;;3.20;2.90;;;;;;;10.71;91.95;100367.44;5028272;28;20207;-72
2021/10/28 19:50:07;;;;;;;1.93;1.83;;;;;;;10.63;93.11;100365.44;5028465;28;20227;-72
2021/10/28 19:52:32;;;;;;;7.77;3.47;;;;;;;10.51;93.60;100363.28;5048085;28;20611;-72
2021/10/28 19:55:03;;;;;;;4.23;3.83;;;;;;;10.39;94.37;100363.06;5070416;28;20224;-72
2021/10/28 19:57:30;;;;;;;2.03;1.90;;;;;;;10.26;95.53;100359.28;5067779;28;20193;-72
2021/10/28 20:00:22;;;;;;;4.37;3.97;;;;;;;10.17;96.80;100357.59;5070572;28;20174;-72
2021/10/28 20:06:07;;;;;;;2.90;2.63;;;;;;;9.96;98.83;100333.50;5070919;28;20259;-72
2021/10/28 20:21:26;;;;;;;5.23;4.70;;;;;;;9.64;100.00;100341.91;5046223;28;20281;-72
2021/10/28 20:23:52;;;;;;;5.77;5.17;;;;;;;9.61;100.00;100350.72;5070317;28;20171;-71
2021/10/28 20:26:18;;;;;;;3.97;3.60;;;;;;;9.58;100.00;100345.88;5070489;28;20212;-72